sensor_id;sensor_type;location;lat;lon;timestamp;P1;durP1;ratioP1;P2;durP2;ratioP2
6979;SDS011;3530;52.832;10.680;2022-12-18T00:02:40;28.05;;;14.68;;
6979;SDS011;3530;52.832;10.680;2022-12-18T00:05:26;32.10;;;14.70;;
6979;SDS011;3530;52.832;10.680;2022-12-18T00:08:11;27.65;;;14.80;;
6979;SDS011;3530;52.832;10.680;2022-12-18T00:11:03;20.75;;;13.65;;
6979;SDS011;3530;52.832;10.680;2022-12-18T00:13:53;25.15;;;14.07;;
6979;SDS011;3530;52.832;10.680;2022-12-18T00:16:42;22.20;;;14.32;;
6979;SDS011;3530;52.832;10.680;2022-12-18T00:19:29;28.30;;;15.10;;
6979;SDS011;3530;52.832;10.680;2022-12-18T00:22:14;28.90;;;15.85;;
6979;SDS011;3530;52.832;10.680;2022-12-18T00:25:00;25.77;;;15.15;;
6979;SDS011;3530;52.832;10.680;2022-12-18T00:27:46;22.27;;;13.38;;
6979;SDS011;3530;52.832;10.680;2022-12-18T00:30:31;30.15;;;15.30;;
6979;SDS011;3530;52.832;10.680;2022-12-18T00:33:17;26.23;;;13.95;;
6979;SDS011;3530;52.832;10.680;2022-12-18T00:36:07;21.35;;;13.25;;
6979;SDS011;3530;52.832;10.680;2022-12-18T00:38:55;25.48;;;14.15;;
6979;SDS011;3530;52.832;10.680;2022-12-18T00:41:41;27.65;;;13.65;;
6979;SDS011;3530;52.832;10.680;2022-12-18T00:44:45;25.75;;;14.48;;
6979;SDS011;3530;52.832;10.680;2022-12-18T00:47:31;24.08;;;13.57;;
6979;SDS011;3530;52.832;10.680;2022-12-18T00:50:17;24.45;;;14.27;;
6979;SDS011;3530;52.832;10.680;2022-12-18T00:53:03;25.63;;;14.25;;
6979;SDS011;3530;52.832;10.680;2022-12-18T00:55:49;26.40;;;14.00;;
6979;SDS011;3530;52.832;10.680;2022-12-18T00:58:35;20.10;;;11.85;;
6979;SDS011;3530;52.832;10.680;2022-12-18T01:01:20;27.65;;;14.10;;
6979;SDS011;3530;52.832;10.680;2022-12-18T01:04:06;27.63;;;13.13;;
6979;SDS011;3530;52.832;10.680;2022-12-18T01:06:52;22.10;;;12.75;;
6979;SDS011;3530;52.832;10.680;2022-12-18T01:09:37;26.40;;;12.65;;
6979;SDS011;3530;52.832;10.680;2022-12-18T01:12:23;24.50;;;13.05;;
6979;SDS011;3530;52.832;10.680;2022-12-18T01:15:09;23.55;;;13.05;;
6979;SDS011;3530;52.832;10.680;2022-12-18T01:17:55;28.10;;;13.48;;
6979;SDS011;3530;52.832;10.680;2022-12-18T01:20:41;22.52;;;11.90;;
6979;SDS011;3530;52.832;10.680;2022-12-18T01:23:26;20.75;;;12.98;;
6979;SDS011;3530;52.832;10.680;2022-12-18T01:26:15;25.83;;;13.45;;
6979;SDS011;3530;52.832;10.680;2022-12-18T01:29:01;17.58;;;12.38;;
6979;SDS011;3530;52.832;10.680;2022-12-18T01:31:50;24.67;;;13.13;;
6979;SDS011;3530;52.832;10.680;2022-12-18T01:34:36;29.83;;;14.57;;
6979;SDS011;3530;52.832;10.680;2022-12-18T01:37:22;26.67;;;15.02;;
6979;SDS011;3530;52.832;10.680;2022-12-18T01:40:08;23.10;;;13.45;;
6979;SDS011;3530;52.832;10.680;2022-12-18T01:42:54;22.50;;;12.55;;
6979;SDS011;3530;52.832;10.680;2022-12-18T01:45:40;23.45;;;13.10;;
6979;SDS011;3530;52.832;10.680;2022-12-18T01:48:25;22.40;;;12.95;;
6979;SDS011;3530;52.832;10.680;2022-12-18T01:51:11;23.55;;;12.65;;
6979;SDS011;3530;52.832;10.680;2022-12-18T01:53:57;22.52;;;12.48;;
6979;SDS011;3530;52.832;10.680;2022-12-18T01:56:44;23.60;;;13.23;;
6979;SDS011;3530;52.832;10.680;2022-12-18T01:59:30;21.80;;;12.13;;
6979;SDS011;3530;52.832;10.680;2022-12-18T02:02:18;20.95;;;11.40;;
6979;SDS011;3530;52.832;10.680;2022-12-18T02:05:04;26.05;;;13.10;;
6979;SDS011;3530;52.832;10.680;2022-12-18T02:14:43;30.33;;;15.15;;
6979;SDS011;3530;52.832;10.680;2022-12-18T02:20:53;34.08;;;16.75;;
6979;SDS011;3530;52.832;10.680;2022-12-18T02:26:56;19.35;;;13.20;;
6979;SDS011;3530;52.832;10.680;2022-12-18T02:29:44;21.73;;;11.80;;
6979;SDS011;3530;52.832;10.680;2022-12-18T02:32:34;21.52;;;12.55;;
6979;SDS011;3530;52.832;10.680;2022-12-18T02:35:26;21.85;;;13.18;;
6979;SDS011;3530;52.832;10.680;2022-12-18T02:38:13;26.33;;;12.85;;
6979;SDS011;3530;52.832;10.680;2022-12-18T02:41:00;22.73;;;13.52;;
6979;SDS011;3530;52.832;10.680;2022-12-18T02:43:46;21.13;;;12.88;;
6979;SDS011;3530;52.832;10.680;2022-12-18T02:46:42;21.25;;;11.40;;
6979;SDS011;3530;52.832;10.680;2022-12-18T02:49:49;21.50;;;10.57;;
6979;SDS011;3530;52.832;10.680;2022-12-18T03:04:57;22.67;;;13.48;;
6979;SDS011;3530;52.832;10.680;2022-12-18T03:07:47;24.20;;;12.73;;
6979;SDS011;3530;52.832;10.680;2022-12-18T03:10:39;22.70;;;12.25;;
6979;SDS011;3530;52.832;10.680;2022-12-18T03:13:36;18.70;;;11.90;;
6979;SDS011;3530;52.832;10.680;2022-12-18T03:16:27;25.75;;;13.30;;
6979;SDS011;3530;52.832;10.680;2022-12-18T03:19:15;25.85;;;13.45;;
6979;SDS011;3530;52.832;10.680;2022-12-18T03:22:02;23.02;;;13.77;;
6979;SDS011;3530;52.832;10.680;2022-12-18T03:24:49;22.58;;;12.68;;
6979;SDS011;3530;52.832;10.680;2022-12-18T03:27:36;29.83;;;13.65;;
6979;SDS011;3530;52.832;10.680;2022-12-18T03:30:23;18.83;;;11.88;;
6979;SDS011;3530;52.832;10.680;2022-12-18T03:33:10;20.27;;;12.90;;
6979;SDS011;3530;52.832;10.680;2022-12-18T03:35:58;20.65;;;11.93;;
6979;SDS011;3530;52.832;10.680;2022-12-18T03:38:44;20.27;;;13.10;;
6979;SDS011;3530;52.832;10.680;2022-12-18T03:41:33;21.27;;;12.15;;
6979;SDS011;3530;52.832;10.680;2022-12-18T03:44:50;17.60;;;12.98;;
6979;SDS011;3530;52.832;10.680;2022-12-18T03:50:48;19.30;;;12.45;;
6979;SDS011;3530;52.832;10.680;2022-12-18T03:56:37;22.88;;;12.60;;
6979;SDS011;3530;52.832;10.680;2022-12-18T03:59:25;23.88;;;12.93;;
6979;SDS011;3530;52.832;10.680;2022-12-18T04:02:12;20.05;;;11.68;;
6979;SDS011;3530;52.832;10.680;2022-12-18T04:04:59;19.20;;;12.32;;
6979;SDS011;3530;52.832;10.680;2022-12-18T04:07:47;19.65;;;12.07;;
6979;SDS011;3530;52.832;10.680;2022-12-18T04:10:33;18.90;;;11.27;;
6979;SDS011;3530;52.832;10.680;2022-12-18T04:13:28;19.90;;;12.00;;
6979;SDS011;3530;52.832;10.680;2022-12-18T04:16:17;17.73;;;11.68;;
6979;SDS011;3530;52.832;10.680;2022-12-18T04:19:03;17.35;;;10.77;;
6979;SDS011;3530;52.832;10.680;2022-12-18T04:21:49;19.80;;;12.57;;
6979;SDS011;3530;52.832;10.680;2022-12-18T04:24:34;20.15;;;12.68;;
6979;SDS011;3530;52.832;10.680;2022-12-18T04:27:20;18.23;;;11.35;;
6979;SDS011;3530;52.832;10.680;2022-12-18T04:30:06;18.83;;;11.80;;
6979;SDS011;3530;52.832;10.680;2022-12-18T04:32:52;17.98;;;11.40;;
6979;SDS011;3530;52.832;10.680;2022-12-18T04:35:39;19.88;;;11.45;;
6979;SDS011;3530;52.832;10.680;2022-12-18T04:38:24;22.65;;;11.30;;
6979;SDS011;3530;52.832;10.680;2022-12-18T04:41:10;24.00;;;12.30;;
6979;SDS011;3530;52.832;10.680;2022-12-18T04:43:56;15.13;;;11.07;;
6979;SDS011;3530;52.832;10.680;2022-12-18T04:46:41;19.83;;;11.23;;
6979;SDS011;3530;52.832;10.680;2022-12-18T04:49:27;19.45;;;11.80;;
6979;SDS011;3530;52.832;10.680;2022-12-18T04:52:13;24.55;;;10.90;;
6979;SDS011;3530;52.832;10.680;2022-12-18T04:54:58;20.00;;;11.20;;
6979;SDS011;3530;52.832;10.680;2022-12-18T04:57:44;12.95;;;9.52;;
6979;SDS011;3530;52.832;10.680;2022-12-18T05:00:30;22.00;;;11.93;;
6979;SDS011;3530;52.832;10.680;2022-12-18T05:03:15;24.08;;;11.73;;
6979;SDS011;3530;52.832;10.680;2022-12-18T05:06:01;19.25;;;11.50;;
6979;SDS011;3530;52.832;10.680;2022-12-18T05:08:47;16.42;;;12.18;;
6979;SDS011;3530;52.832;10.680;2022-12-18T05:11:33;17.60;;;12.30;;
6979;SDS011;3530;52.832;10.680;2022-12-18T05:14:19;17.02;;;11.32;;
6979;SDS011;3530;52.832;10.680;2022-12-18T05:17:04;22.15;;;12.93;;
6979;SDS011;3530;52.832;10.680;2022-12-18T05:19:50;22.40;;;12.05;;
6979;SDS011;3530;52.832;10.680;2022-12-18T05:22:35;16.35;;;11.90;;
6979;SDS011;3530;52.832;10.680;2022-12-18T05:25:21;17.25;;;10.30;;
6979;SDS011;3530;52.832;10.680;2022-12-18T05:28:07;24.77;;;12.77;;
6979;SDS011;3530;52.832;10.680;2022-12-18T05:30:59;21.17;;;11.95;;
6979;SDS011;3530;52.832;10.680;2022-12-18T05:33:47;18.58;;;12.02;;
6979;SDS011;3530;52.832;10.680;2022-12-18T05:36:33;18.13;;;11.90;;
6979;SDS011;3530;52.832;10.680;2022-12-18T05:39:18;18.73;;;10.85;;
6979;SDS011;3530;52.832;10.680;2022-12-18T05:42:04;16.85;;;11.35;;
6979;SDS011;3530;52.832;10.680;2022-12-18T05:44:50;21.35;;;11.88;;
6979;SDS011;3530;52.832;10.680;2022-12-18T05:47:35;21.92;;;10.75;;
6979;SDS011;3530;52.832;10.680;2022-12-18T05:50:21;21.52;;;10.75;;
6979;SDS011;3530;52.832;10.680;2022-12-18T05:53:07;19.77;;;11.43;;
6979;SDS011;3530;52.832;10.680;2022-12-18T05:55:53;23.13;;;11.38;;
6979;SDS011;3530;52.832;10.680;2022-12-18T05:58:38;24.25;;;13.57;;
6979;SDS011;3530;52.832;10.680;2022-12-18T06:01:25;21.38;;;12.50;;
6979;SDS011;3530;52.832;10.680;2022-12-18T06:04:11;15.40;;;11.27;;
6979;SDS011;3530;52.832;10.680;2022-12-18T06:06:57;19.73;;;11.45;;
6979;SDS011;3530;52.832;10.680;2022-12-18T06:09:43;17.27;;;10.90;;
6979;SDS011;3530;52.832;10.680;2022-12-18T06:12:28;18.23;;;12.48;;
6979;SDS011;3530;52.832;10.680;2022-12-18T06:15:14;15.15;;;10.52;;
6979;SDS011;3530;52.832;10.680;2022-12-18T06:18:00;30.40;;;13.27;;
6979;SDS011;3530;52.832;10.680;2022-12-18T06:20:53;22.17;;;12.40;;
6979;SDS011;3530;52.832;10.680;2022-12-18T06:23:42;19.45;;;12.30;;
6979;SDS011;3530;52.832;10.680;2022-12-18T06:26:28;15.93;;;10.85;;
6979;SDS011;3530;52.832;10.680;2022-12-18T06:29:14;19.95;;;11.65;;
6979;SDS011;3530;52.832;10.680;2022-12-18T06:32:00;18.05;;;11.57;;
6979;SDS011;3530;52.832;10.680;2022-12-18T06:34:45;22.90;;;11.82;;
6979;SDS011;3530;52.832;10.680;2022-12-18T06:37:31;15.95;;;11.38;;
6979;SDS011;3530;52.832;10.680;2022-12-18T06:40:17;19.33;;;12.30;;
6979;SDS011;3530;52.832;10.680;2022-12-18T06:43:02;20.95;;;11.77;;
6979;SDS011;3530;52.832;10.680;2022-12-18T06:45:48;15.23;;;11.50;;
6979;SDS011;3530;52.832;10.680;2022-12-18T06:48:37;14.95;;;10.98;;
6979;SDS011;3530;52.832;10.680;2022-12-18T06:51:23;20.13;;;11.77;;
6979;SDS011;3530;52.832;10.680;2022-12-18T06:54:09;15.73;;;11.07;;
6979;SDS011;3530;52.832;10.680;2022-12-18T06:56:55;24.45;;;12.95;;
6979;SDS011;3530;52.832;10.680;2022-12-18T06:59:41;17.48;;;11.65;;
6979;SDS011;3530;52.832;10.680;2022-12-18T07:02:27;14.27;;;11.00;;
6979;SDS011;3530;52.832;10.680;2022-12-18T07:05:12;15.80;;;10.63;;
6979;SDS011;3530;52.832;10.680;2022-12-18T07:07:58;13.90;;;11.25;;
6979;SDS011;3530;52.832;10.680;2022-12-18T07:10:43;12.57;;;9.70;;
6979;SDS011;3530;52.832;10.680;2022-12-18T07:13:29;18.77;;;12.05;;
6979;SDS011;3530;52.832;10.680;2022-12-18T07:16:18;15.52;;;10.18;;
6979;SDS011;3530;52.832;10.680;2022-12-18T07:19:05;21.60;;;12.13;;
6979;SDS011;3530;52.832;10.680;2022-12-18T07:21:51;19.25;;;14.07;;
6979;SDS011;3530;52.832;10.680;2022-12-18T07:24:36;18.73;;;11.75;;
6979;SDS011;3530;52.832;10.680;2022-12-18T07:27:22;22.60;;;12.52;;
6979;SDS011;3530;52.832;10.680;2022-12-18T07:30:08;21.17;;;11.27;;
6979;SDS011;3530;52.832;10.680;2022-12-18T07:32:54;22.38;;;13.65;;
6979;SDS011;3530;52.832;10.680;2022-12-18T07:35:40;19.65;;;12.15;;
6979;SDS011;3530;52.832;10.680;2022-12-18T07:38:26;23.80;;;13.07;;
6979;SDS011;3530;52.832;10.680;2022-12-18T07:41:12;18.73;;;12.35;;
6979;SDS011;3530;52.832;10.680;2022-12-18T07:43:58;19.25;;;11.73;;
6979;SDS011;3530;52.832;10.680;2022-12-18T07:46:44;18.58;;;12.40;;
6979;SDS011;3530;52.832;10.680;2022-12-18T07:49:29;20.20;;;12.93;;
6979;SDS011;3530;52.832;10.680;2022-12-18T07:52:15;22.63;;;11.32;;
6979;SDS011;3530;52.832;10.680;2022-12-18T07:55:01;19.35;;;11.20;;
6979;SDS011;3530;52.832;10.680;2022-12-18T07:57:47;16.73;;;11.18;;
6979;SDS011;3530;52.832;10.680;2022-12-18T08:00:33;16.88;;;11.88;;
6979;SDS011;3530;52.832;10.680;2022-12-18T08:03:19;18.98;;;12.93;;
6979;SDS011;3530;52.832;10.680;2022-12-18T08:06:06;25.42;;;13.38;;
6979;SDS011;3530;52.832;10.680;2022-12-18T08:08:53;22.40;;;12.57;;
6979;SDS011;3530;52.832;10.680;2022-12-18T08:11:40;20.27;;;12.63;;
6979;SDS011;3530;52.832;10.680;2022-12-18T08:14:25;17.70;;;10.55;;
6979;SDS011;3530;52.832;10.680;2022-12-18T08:17:11;25.90;;;12.70;;
6979;SDS011;3530;52.832;10.680;2022-12-18T08:19:57;20.92;;;12.48;;
6979;SDS011;3530;52.832;10.680;2022-12-18T08:22:42;18.02;;;12.02;;
6979;SDS011;3530;52.832;10.680;2022-12-18T08:25:28;27.75;;;13.20;;
6979;SDS011;3530;52.832;10.680;2022-12-18T08:28:15;21.95;;;13.07;;
6979;SDS011;3530;52.832;10.680;2022-12-18T08:31:01;17.10;;;12.50;;
6979;SDS011;3530;52.832;10.680;2022-12-18T08:33:50;20.38;;;15.05;;
6979;SDS011;3530;52.832;10.680;2022-12-18T08:36:36;35.20;;;18.50;;
6979;SDS011;3530;52.832;10.680;2022-12-18T08:39:22;28.55;;;14.00;;
6979;SDS011;3530;52.832;10.680;2022-12-18T08:42:07;21.50;;;12.13;;
6979;SDS011;3530;52.832;10.680;2022-12-18T08:45:12;20.67;;;12.52;;
6979;SDS011;3530;52.832;10.680;2022-12-18T08:47:57;27.02;;;14.88;;
6979;SDS011;3530;52.832;10.680;2022-12-18T08:50:43;14.52;;;11.10;;
6979;SDS011;3530;52.832;10.680;2022-12-18T08:53:29;21.35;;;12.75;;
6979;SDS011;3530;52.832;10.680;2022-12-18T08:56:14;4.53;;;4.30;;
6979;SDS011;3530;52.832;10.680;2022-12-18T08:59:00;7.15;;;6.45;;
6979;SDS011;3530;52.832;10.680;2022-12-18T09:01:46;16.58;;;10.63;;
6979;SDS011;3530;52.832;10.680;2022-12-18T09:04:32;13.25;;;8.73;;
6979;SDS011;3530;52.832;10.680;2022-12-18T09:07:18;10.45;;;8.68;;
6979;SDS011;3530;52.832;10.680;2022-12-18T09:10:03;19.70;;;10.35;;
6979;SDS011;3530;52.832;10.680;2022-12-18T09:12:50;17.25;;;9.18;;
6979;SDS011;3530;52.832;10.680;2022-12-18T09:15:39;18.00;;;9.50;;
6979;SDS011;3530;52.832;10.680;2022-12-18T09:18:26;7.47;;;6.57;;
6979;SDS011;3530;52.832;10.680;2022-12-18T09:21:19;11.90;;;9.27;;
6979;SDS011;3530;52.832;10.680;2022-12-18T09:24:05;14.05;;;8.55;;
6979;SDS011;3530;52.832;10.680;2022-12-18T09:26:54;6.38;;;5.70;;
6979;SDS011;3530;52.832;10.680;2022-12-18T09:29:40;9.20;;;7.60;;
6979;SDS011;3530;52.832;10.680;2022-12-18T09:32:26;13.30;;;9.32;;
6979;SDS011;3530;52.832;10.680;2022-12-18T09:35:11;11.43;;;7.82;;
6979;SDS011;3530;52.832;10.680;2022-12-18T09:37:57;12.35;;;8.02;;
6979;SDS011;3530;52.832;10.680;2022-12-18T09:40:44;11.48;;;7.90;;
6979;SDS011;3530;52.832;10.680;2022-12-18T09:46:33;14.88;;;9.75;;
6979;SDS011;3530;52.832;10.680;2022-12-18T09:49:22;11.15;;;8.27;;
6979;SDS011;3530;52.832;10.680;2022-12-18T09:52:12;7.53;;;6.30;;
6979;SDS011;3530;52.832;10.680;2022-12-18T10:01:29;15.70;;;8.48;;
6979;SDS011;3530;52.832;10.680;2022-12-18T10:04:15;7.43;;;6.85;;
6979;SDS011;3530;52.832;10.680;2022-12-18T10:07:07;9.13;;;6.00;;
6979;SDS011;3530;52.832;10.680;2022-12-18T10:10:01;14.60;;;7.47;;
6979;SDS011;3530;52.832;10.680;2022-12-18T10:15:54;17.50;;;8.48;;
6979;SDS011;3530;52.832;10.680;2022-12-18T10:21:51;15.93;;;8.85;;
6979;SDS011;3530;52.832;10.680;2022-12-18T10:27:52;18.52;;;10.35;;
6979;SDS011;3530;52.832;10.680;2022-12-18T10:30:41;12.40;;;6.70;;
6979;SDS011;3530;52.832;10.680;2022-12-18T10:33:28;23.90;;;12.40;;
6979;SDS011;3530;52.832;10.680;2022-12-18T10:36:15;11.13;;;7.28;;
6979;SDS011;3530;52.832;10.680;2022-12-18T10:42:10;13.43;;;8.43;;
6979;SDS011;3530;52.832;10.680;2022-12-18T10:45:09;14.57;;;9.38;;
6979;SDS011;3530;52.832;10.680;2022-12-18T10:48:01;14.15;;;9.05;;
6979;SDS011;3530;52.832;10.680;2022-12-18T10:50:47;11.50;;;7.85;;
6979;SDS011;3530;52.832;10.680;2022-12-18T10:53:35;26.08;;;10.57;;
6979;SDS011;3530;52.832;10.680;2022-12-18T10:56:21;21.27;;;12.02;;
6979;SDS011;3530;52.832;10.680;2022-12-18T10:59:09;19.15;;;10.43;;
6979;SDS011;3530;52.832;10.680;2022-12-18T11:01:56;11.05;;;7.07;;
6979;SDS011;3530;52.832;10.680;2022-12-18T11:04:50;19.83;;;10.27;;
6979;SDS011;3530;52.832;10.680;2022-12-18T11:07:49;14.07;;;8.02;;
6979;SDS011;3530;52.832;10.680;2022-12-18T11:10:36;14.40;;;9.40;;
6979;SDS011;3530;52.832;10.680;2022-12-18T11:13:23;13.88;;;8.77;;
6979;SDS011;3530;52.832;10.680;2022-12-18T11:16:17;24.17;;;11.68;;
6979;SDS011;3530;52.832;10.680;2022-12-18T11:19:17;30.90;;;16.35;;
6979;SDS011;3530;52.832;10.680;2022-12-18T11:22:20;45.20;;;20.42;;
6979;SDS011;3530;52.832;10.680;2022-12-18T11:30:46;35.75;;;15.55;;
6979;SDS011;3530;52.832;10.680;2022-12-18T11:33:32;31.02;;;16.42;;
6979;SDS011;3530;52.832;10.680;2022-12-18T11:36:18;30.00;;;14.35;;
6979;SDS011;3530;52.832;10.680;2022-12-18T11:39:08;27.08;;;13.02;;
6979;SDS011;3530;52.832;10.680;2022-12-18T11:41:59;33.20;;;15.55;;
6979;SDS011;3530;52.832;10.680;2022-12-18T11:44:58;28.27;;;14.23;;
6979;SDS011;3530;52.832;10.680;2022-12-18T11:48:06;33.65;;;15.75;;
6979;SDS011;3530;52.832;10.680;2022-12-18T11:51:00;32.53;;;15.85;;
6979;SDS011;3530;52.832;10.680;2022-12-18T11:53:47;37.35;;;17.45;;
6979;SDS011;3530;52.832;10.680;2022-12-18T11:56:35;31.45;;;15.20;;
6979;SDS011;3530;52.832;10.680;2022-12-18T11:59:31;37.40;;;18.83;;
6979;SDS011;3530;52.832;10.680;2022-12-18T12:05:42;27.15;;;15.77;;
6979;SDS011;3530;52.832;10.680;2022-12-18T12:08:53;29.77;;;14.48;;
6979;SDS011;3530;52.832;10.680;2022-12-18T12:11:52;34.15;;;14.82;;
6979;SDS011;3530;52.832;10.680;2022-12-18T12:14:47;21.98;;;11.82;;
6979;SDS011;3530;52.832;10.680;2022-12-18T12:17:45;32.15;;;15.88;;
6979;SDS011;3530;52.832;10.680;2022-12-18T12:30:21;28.33;;;13.15;;
6979;SDS011;3530;52.832;10.680;2022-12-18T12:39:09;22.25;;;10.13;;
6979;SDS011;3530;52.832;10.680;2022-12-18T12:41:59;19.33;;;11.18;;
6979;SDS011;3530;52.832;10.680;2022-12-18T12:45:05;20.55;;;12.02;;
6979;SDS011;3530;52.832;10.680;2022-12-18T12:47:51;27.42;;;12.90;;
6979;SDS011;3530;52.832;10.680;2022-12-18T12:50:37;26.58;;;11.88;;
6979;SDS011;3530;52.832;10.680;2022-12-18T12:53:30;18.17;;;10.50;;
6979;SDS011;3530;52.832;10.680;2022-12-18T12:56:18;22.45;;;11.50;;
6979;SDS011;3530;52.832;10.680;2022-12-18T12:59:13;22.10;;;12.30;;
6979;SDS011;3530;52.832;10.680;2022-12-18T13:08:22;17.52;;;10.65;;
6979;SDS011;3530;52.832;10.680;2022-12-18T13:11:14;23.15;;;12.25;;
6979;SDS011;3530;52.832;10.680;2022-12-18T13:14:39;22.25;;;11.15;;
6979;SDS011;3530;52.832;10.680;2022-12-18T13:17:29;21.98;;;12.63;;
6979;SDS011;3530;52.832;10.680;2022-12-18T13:20:16;15.80;;;9.82;;
6979;SDS011;3530;52.832;10.680;2022-12-18T13:29:04;13.80;;;8.25;;
6979;SDS011;3530;52.832;10.680;2022-12-18T13:31:58;18.05;;;9.70;;
6979;SDS011;3530;52.832;10.680;2022-12-18T13:34:44;16.08;;;10.02;;
6979;SDS011;3530;52.832;10.680;2022-12-18T13:37:39;21.25;;;11.43;;
6979;SDS011;3530;52.832;10.680;2022-12-18T13:46:19;15.60;;;8.45;;
6979;SDS011;3530;52.832;10.680;2022-12-18T13:49:16;15.13;;;9.32;;
6979;SDS011;3530;52.832;10.680;2022-12-18T13:52:15;16.05;;;8.15;;
6979;SDS011;3530;52.832;10.680;2022-12-18T13:55:02;15.90;;;9.43;;
6979;SDS011;3530;52.832;10.680;2022-12-18T13:57:51;19.33;;;10.60;;
6979;SDS011;3530;52.832;10.680;2022-12-18T14:00:49;26.63;;;11.93;;
6979;SDS011;3530;52.832;10.680;2022-12-18T14:03:34;21.60;;;12.88;;
6979;SDS011;3530;52.832;10.680;2022-12-18T14:06:20;23.50;;;13.48;;
6979;SDS011;3530;52.832;10.680;2022-12-18T14:09:06;26.40;;;11.18;;
6979;SDS011;3530;52.832;10.680;2022-12-18T14:11:53;19.17;;;10.10;;
6979;SDS011;3530;52.832;10.680;2022-12-18T14:15:00;18.17;;;9.13;;
6979;SDS011;3530;52.832;10.680;2022-12-18T14:17:46;21.52;;;10.15;;
6979;SDS011;3530;52.832;10.680;2022-12-18T14:20:32;18.88;;;9.55;;
6979;SDS011;3530;52.832;10.680;2022-12-18T14:23:51;15.82;;;9.57;;
6979;SDS011;3530;52.832;10.680;2022-12-18T14:26:30;12.68;;;8.20;;
6979;SDS011;3530;52.832;10.680;2022-12-18T14:29:29;15.90;;;9.20;;
6979;SDS011;3530;52.832;10.680;2022-12-18T14:32:16;24.05;;;10.27;;
6979;SDS011;3530;52.832;10.680;2022-12-18T14:35:12;18.00;;;9.20;;
6979;SDS011;3530;52.832;10.680;2022-12-18T14:41:11;16.65;;;10.10;;
6979;SDS011;3530;52.832;10.680;2022-12-18T14:44:04;15.90;;;8.90;;
6979;SDS011;3530;52.832;10.680;2022-12-18T14:46:51;12.68;;;9.27;;
6979;SDS011;3530;52.832;10.680;2022-12-18T14:49:37;17.17;;;10.32;;
6979;SDS011;3530;52.832;10.680;2022-12-18T14:52:26;18.63;;;9.32;;
6979;SDS011;3530;52.832;10.680;2022-12-18T14:55:16;17.52;;;9.75;;
6979;SDS011;3530;52.832;10.680;2022-12-18T14:58:02;18.65;;;8.75;;
6979;SDS011;3530;52.832;10.680;2022-12-18T15:00:48;12.23;;;8.50;;
6979;SDS011;3530;52.832;10.680;2022-12-18T15:03:34;16.88;;;8.88;;
6979;SDS011;3530;52.832;10.680;2022-12-18T15:06:27;17.08;;;9.40;;
6979;SDS011;3530;52.832;10.680;2022-12-18T15:09:20;17.60;;;8.45;;
6979;SDS011;3530;52.832;10.680;2022-12-18T15:18:19;10.43;;;7.30;;
6979;SDS011;3530;52.832;10.680;2022-12-18T15:21:07;12.02;;;8.88;;
6979;SDS011;3530;52.832;10.680;2022-12-18T15:23:54;17.02;;;9.05;;
6979;SDS011;3530;52.832;10.680;2022-12-18T15:26:40;12.75;;;8.25;;
6979;SDS011;3530;52.832;10.680;2022-12-18T15:29:26;18.13;;;9.52;;
6979;SDS011;3530;52.832;10.680;2022-12-18T15:32:18;12.20;;;8.68;;
6979;SDS011;3530;52.832;10.680;2022-12-18T15:37:53;13.93;;;8.15;;
6979;SDS011;3530;52.832;10.680;2022-12-18T15:40:39;10.25;;;7.75;;
6979;SDS011;3530;52.832;10.680;2022-12-18T15:43:25;14.77;;;9.70;;
6979;SDS011;3530;52.832;10.680;2022-12-18T15:46:21;17.25;;;9.50;;
6979;SDS011;3530;52.832;10.680;2022-12-18T15:49:08;18.13;;;11.52;;
6979;SDS011;3530;52.832;10.680;2022-12-18T15:51:54;13.32;;;9.02;;
6979;SDS011;3530;52.832;10.680;2022-12-18T15:54:42;15.48;;;9.90;;
6979;SDS011;3530;52.832;10.680;2022-12-18T15:57:46;17.85;;;8.32;;
6979;SDS011;3530;52.832;10.680;2022-12-18T16:00:32;5.97;;;5.57;;
6979;SDS011;3530;52.832;10.680;2022-12-18T16:03:19;3.72;;;3.55;;
6979;SDS011;3530;52.832;10.680;2022-12-18T16:06:05;8.50;;;7.72;;
6979;SDS011;3530;52.832;10.680;2022-12-18T16:08:51;6.93;;;5.88;;
6979;SDS011;3530;52.832;10.680;2022-12-18T16:11:36;7.47;;;5.72;;
6979;SDS011;3530;52.832;10.680;2022-12-18T16:14:24;16.85;;;8.35;;
6979;SDS011;3530;52.832;10.680;2022-12-18T16:17:13;11.73;;;7.68;;
6979;SDS011;3530;52.832;10.680;2022-12-18T16:19:59;7.50;;;6.75;;
6979;SDS011;3530;52.832;10.680;2022-12-18T16:22:45;13.48;;;8.85;;
6979;SDS011;3530;52.832;10.680;2022-12-18T16:25:32;10.60;;;7.10;;
6979;SDS011;3530;52.832;10.680;2022-12-18T16:28:17;10.32;;;6.05;;
6979;SDS011;3530;52.832;10.680;2022-12-18T16:31:03;13.40;;;7.65;;
6979;SDS011;3530;52.832;10.680;2022-12-18T16:33:49;15.27;;;8.32;;
6979;SDS011;3530;52.832;10.680;2022-12-18T16:36:34;12.35;;;8.90;;
6979;SDS011;3530;52.832;10.680;2022-12-18T16:39:20;13.23;;;8.25;;
6979;SDS011;3530;52.832;10.680;2022-12-18T16:42:16;12.25;;;7.57;;
6979;SDS011;3530;52.832;10.680;2022-12-18T16:45:04;7.90;;;6.25;;
6979;SDS011;3530;52.832;10.680;2022-12-18T16:47:51;15.30;;;8.80;;
6979;SDS011;3530;52.832;10.680;2022-12-18T16:50:36;7.78;;;5.95;;
6979;SDS011;3530;52.832;10.680;2022-12-18T16:53:22;21.15;;;11.55;;
6979;SDS011;3530;52.832;10.680;2022-12-18T16:56:08;11.45;;;6.13;;
6979;SDS011;3530;52.832;10.680;2022-12-18T16:58:54;11.10;;;8.57;;
6979;SDS011;3530;52.832;10.680;2022-12-18T17:01:41;10.93;;;7.45;;
6979;SDS011;3530;52.832;10.680;2022-12-18T17:04:27;8.90;;;5.40;;
6979;SDS011;3530;52.832;10.680;2022-12-18T17:07:13;10.35;;;7.45;;
6979;SDS011;3530;52.832;10.680;2022-12-18T17:09:59;11.70;;;8.73;;
6979;SDS011;3530;52.832;10.680;2022-12-18T17:12:45;13.05;;;9.05;;
6979;SDS011;3530;52.832;10.680;2022-12-18T17:15:33;10.80;;;8.45;;
6979;SDS011;3530;52.832;10.680;2022-12-18T17:18:19;12.40;;;7.95;;
6979;SDS011;3530;52.832;10.680;2022-12-18T17:21:06;13.63;;;8.75;;
6979;SDS011;3530;52.832;10.680;2022-12-18T17:23:53;6.95;;;6.30;;
6979;SDS011;3530;52.832;10.680;2022-12-18T17:26:39;12.82;;;7.00;;
6979;SDS011;3530;52.832;10.680;2022-12-18T17:29:25;6.82;;;6.22;;
6979;SDS011;3530;52.832;10.680;2022-12-18T17:32:10;8.75;;;6.70;;
6979;SDS011;3530;52.832;10.680;2022-12-18T17:34:56;7.90;;;6.15;;
6979;SDS011;3530;52.832;10.680;2022-12-18T17:37:42;5.30;;;4.60;;
6979;SDS011;3530;52.832;10.680;2022-12-18T17:40:27;16.90;;;10.60;;
6979;SDS011;3530;52.832;10.680;2022-12-18T17:43:13;10.27;;;6.25;;
6979;SDS011;3530;52.832;10.680;2022-12-18T17:46:02;10.75;;;7.95;;
6979;SDS011;3530;52.832;10.680;2022-12-18T17:48:48;9.30;;;6.85;;
6979;SDS011;3530;52.832;10.680;2022-12-18T17:51:34;12.00;;;6.38;;
6979;SDS011;3530;52.832;10.680;2022-12-18T17:54:19;9.10;;;6.15;;
6979;SDS011;3530;52.832;10.680;2022-12-18T17:57:05;5.22;;;4.70;;
6979;SDS011;3530;52.832;10.680;2022-12-18T17:59:51;9.07;;;7.90;;
6979;SDS011;3530;52.832;10.680;2022-12-18T18:02:36;7.20;;;5.90;;
6979;SDS011;3530;52.832;10.680;2022-12-18T18:05:22;10.38;;;5.40;;
6979;SDS011;3530;52.832;10.680;2022-12-18T18:08:08;10.50;;;6.72;;
6979;SDS011;3530;52.832;10.680;2022-12-18T18:10:53;8.38;;;5.85;;
6979;SDS011;3530;52.832;10.680;2022-12-18T18:13:40;6.63;;;5.03;;
6979;SDS011;3530;52.832;10.680;2022-12-18T18:16:45;8.20;;;5.53;;
6979;SDS011;3530;52.832;10.680;2022-12-18T18:19:32;12.52;;;8.63;;
6979;SDS011;3530;52.832;10.680;2022-12-18T18:22:18;15.43;;;9.40;;
6979;SDS011;3530;52.832;10.680;2022-12-18T18:25:04;19.05;;;7.88;;
6979;SDS011;3530;52.832;10.680;2022-12-18T18:27:50;6.13;;;5.00;;
6979;SDS011;3530;52.832;10.680;2022-12-18T18:30:35;7.93;;;5.45;;
6979;SDS011;3530;52.832;10.680;2022-12-18T18:33:21;11.18;;;7.63;;
6979;SDS011;3530;52.832;10.680;2022-12-18T18:36:08;7.82;;;6.03;;